Aeroporto :
LOGIN :

Iscrizione | Disclaimer

   EN    FR    IT 

 










Sommario :    VFR   VFR Marginale   IFR   IFR Intensivo   IFR Molto Intensivo
Visibilità : 
Base nubi : 
>= 8 km
>= 3000ft
5 / 8 km
1000 / 3000 ft
1500m / 5 km
500 / 1000 ft
800 / 1500m
200 / 500 ft
< 800m
< 200 ft
Simboli :   Temporali  Nebbia  Neve Forte  Precipitazioni Forti  Vento > 20 kt
SIGMETs :   Varie  Temporali  Ghiacco  Turbolenza  Onda orograficha  Ceneri Vulcaniche






- Altitudine del aeroporto : 14 ft
- Codice IATA : BRE


EDDW - Bremen Neuenland

ULTIMO METAR :
  • 221550Z 21006KT 9999 BKN023 14/11 Q1023 NOSIG

METARs OBSOLETI :
  • 221520Z 23005KT 9999 BKN023 14/11 Q1023 NOSIG
  • 221450Z 24007KT 9999 SCT023 14/11 Q1023 NOSIG
  • 221420Z 22005KT 9999 FEW021 SCT048 15/11 Q1023 NOSIG
  • 221350Z 22005KT 9999 FEW021 SCT035 14/11 Q1023 NOSIG
  • 221320Z 22007KT 9999 FEW018 BKN023 14/11 Q1023 NOSIG

TAF TAF EDDW
Valido dal 22 a 12 ore il 23 a 12 ore UTC


221100Z 2212/2312 23010KT 9999 SCT035
BECMG 2215/2218 VRB03KT
BECMG 2220/2223 3000 BR BKN010
TEMPO 2221/2310 1400 -DZ BCFG
PROB30
TEMPO 2300/2308 0600 FG OVC001
BECMG 2308/2311 12006KT 9999 SCT015



MetMap, La meteo Aeronautica in un colpo d'occhio ! - Copyright ORBIFLY Dicembre 2007 - Disclaimer

ORBIFLY MET'MAP TEAM :

Programmazione e sviluppo : Alexandra Zaïnal
Concezione e sviluppo : Baudouin d'Aumeries
Co-Programmazione e sviluppo : Marc-Olivier Méhu
Supporto tecnico e logistico : Manuel Goepfert
Aiuto per la traduzione : Arnaldo La Scala

Contatto : metmap@orbifly.com




FONTI E CREDITI :

   NOAA